createdAt,value
2024-02-13T00:00:30.255Z,2.72
2024-02-13T00:02:58.774Z,2.84
2024-02-13T00:05:28.364Z,2.73
2024-02-13T00:08:01.299Z,2.63
2024-02-13T00:10:31.679Z,2.66
2024-02-13T00:13:00.839Z,2.77
2024-02-13T00:15:29.452Z,2.75
2024-02-13T00:17:58.172Z,2.66
2024-02-13T00:20:27.170Z,2.62
2024-02-13T00:22:56.642Z,2.59
2024-02-13T00:25:27.194Z,2.68
2024-02-13T00:27:56.937Z,2.74
2024-02-13T00:30:25.732Z,2.71
2024-02-13T00:32:54.130Z,2.73
2024-02-13T00:35:22.727Z,2.76
2024-02-13T00:37:51.115Z,2.73
2024-02-13T00:40:19.525Z,2.77
2024-02-13T00:42:50.370Z,2.74
2024-02-13T00:45:20.435Z,2.62
2024-02-13T00:47:49.892Z,2.47
2024-02-13T00:50:18.664Z,2.46
2024-02-13T00:52:47.190Z,2.51
2024-02-13T00:55:15.637Z,2.52
2024-02-13T00:57:45.149Z,2.47
2024-02-13T01:00:14.357Z,2.49
2024-02-13T01:02:44.244Z,2.39
2024-02-13T01:05:12.831Z,2.44
2024-02-13T01:07:41.249Z,2.49
2024-02-13T01:10:10.612Z,2.45
2024-02-13T01:12:40.302Z,2.46
2024-02-13T01:15:09.540Z,2.35
2024-02-13T01:17:38.014Z,2.33
2024-02-13T01:20:12.653Z,2.30
2024-02-13T01:22:43.238Z,2.36
2024-02-13T01:25:15.505Z,2.38
2024-02-13T01:27:43.999Z,2.35
2024-02-13T01:30:15.225Z,2.28
2024-02-13T01:32:43.763Z,2.22
2024-02-13T01:35:14.931Z,2.20
2024-02-13T01:37:43.480Z,2.26
2024-02-13T01:40:17.337Z,2.29
2024-02-13T01:42:49.843Z,2.24
2024-02-13T01:45:18.964Z,2.14
2024-02-13T01:47:47.674Z,2.01
2024-02-13T01:50:21.714Z,1.91
2024-02-13T01:52:53.921Z,2.00
2024-02-13T01:55:26.486Z,2.02
2024-02-13T01:57:57.838Z,2.00
2024-02-13T02:00:28.527Z,2.11
2024-02-13T02:02:57.347Z,2.15
2024-02-13T02:05:27.183Z,2.17
2024-02-13T02:07:57.457Z,2.17
2024-02-13T02:10:26.044Z,2.10
2024-02-13T02:12:54.493Z,2.16
2024-02-13T02:15:22.988Z,2.13
2024-02-13T02:17:55.296Z,2.18
2024-02-13T02:20:24.549Z,1.99
2024-02-13T02:22:54.534Z,1.87
2024-02-13T02:25:24.335Z,1.98
2024-02-13T02:27:52.975Z,2.07
2024-02-13T02:30:21.434Z,2.15
2024-02-13T02:32:49.932Z,2.12
2024-02-13T02:35:19.254Z,2.04
2024-02-13T02:37:49.859Z,1.97
2024-02-13T02:40:19.708Z,1.97
2024-02-13T02:42:53.431Z,1.95
2024-02-13T02:45:22.091Z,2.05
2024-02-13T02:47:50.949Z,1.99
2024-02-13T02:50:19.576Z,2.08
2024-02-13T02:52:48.042Z,2.08
2024-02-13T02:55:19.040Z,1.93
2024-02-13T02:57:48.013Z,1.83
2024-02-13T03:00:21.696Z,1.86
2024-02-13T03:02:50.537Z,1.96
2024-02-13T03:05:19.231Z,2.05
2024-02-13T03:07:48.157Z,2.03
2024-02-13T03:10:16.829Z,2.07
2024-02-13T03:12:45.815Z,2.09
2024-02-13T03:15:14.705Z,2.02
2024-02-13T03:17:49.422Z,2.05
2024-02-13T03:20:18.084Z,2.03
2024-02-13T03:22:46.493Z,2.09
2024-02-13T03:25:15.208Z,2.10
2024-02-13T03:27:43.593Z,1.97
2024-02-13T03:30:14.419Z,1.98
2024-02-13T03:32:45.580Z,1.99
2024-02-13T03:35:14.200Z,1.93
2024-02-13T03:37:43.002Z,1.99
2024-02-13T03:40:16.164Z,1.98
2024-02-13T03:42:45.858Z,2.12
2024-02-13T03:45:14.533Z,2.05
2024-02-13T03:47:44.747Z,2.10
2024-02-13T03:50:13.724Z,1.93
2024-02-13T03:52:42.476Z,1.83
2024-02-13T03:55:11.570Z,1.92
2024-02-13T03:57:41.514Z,1.98
2024-02-13T04:00:12.807Z,1.97
2024-02-13T04:02:41.311Z,1.93
2024-02-13T04:05:14.074Z,1.81
2024-02-13T04:07:42.595Z,1.83
2024-02-13T04:10:11.450Z,1.86
2024-02-13T04:12:40.184Z,1.91
2024-02-13T04:15:10.209Z,1.96
2024-02-13T04:17:38.832Z,1.99
2024-02-13T04:20:10.149Z,1.89
2024-02-13T04:22:40.149Z,1.99
2024-02-13T04:25:09.592Z,1.99
2024-02-13T04:27:38.738Z,2.00
2024-02-13T04:30:09.416Z,1.99
2024-02-13T04:32:39.514Z,1.98
2024-02-13T04:35:10.091Z,1.97
2024-02-13T04:37:40.036Z,1.95
2024-02-13T04:40:12.416Z,1.97
2024-02-13T04:42:42.313Z,2.00
2024-02-13T04:45:11.334Z,2.01
2024-02-13T04:47:40.587Z,1.95
2024-02-13T04:50:12.906Z,1.96
2024-02-13T04:52:44.438Z,1.95
2024-02-13T04:55:13.117Z,1.94
2024-02-13T04:57:41.958Z,1.94
2024-02-13T05:00:19.843Z,1.94
2024-02-13T05:02:51.415Z,1.90
2024-02-13T05:05:38.136Z,1.92
2024-02-13T05:08:08.818Z,1.89
2024-02-13T05:10:37.178Z,1.84
2024-02-13T05:13:05.935Z,1.80
2024-02-13T05:15:34.448Z,1.88
2024-02-13T05:18:03.006Z,1.85
2024-02-13T05:20:31.485Z,1.82
2024-02-13T05:23:00.501Z,1.79
2024-02-13T05:25:31.328Z,1.80
2024-02-13T05:28:01.084Z,1.85
2024-02-13T05:30:29.497Z,1.82
2024-02-13T05:32:57.956Z,1.79
2024-02-13T05:35:26.635Z,1.77
2024-02-13T05:37:55.156Z,1.78
2024-02-13T05:40:23.905Z,1.89
2024-02-13T05:42:55.973Z,1.70
2024-02-13T05:45:24.414Z,1.71
2024-02-13T05:47:53.096Z,1.69
2024-02-13T05:50:22.085Z,1.62
2024-02-13T05:52:51.591Z,1.60
2024-02-13T05:55:20.188Z,1.55
2024-02-13T05:57:48.682Z,1.60
2024-02-13T06:00:19.337Z,1.53
2024-02-13T06:02:47.930Z,1.53
2024-02-13T06:05:16.749Z,1.52
2024-02-13T06:07:45.868Z,1.46
2024-02-13T06:10:15.220Z,1.48
2024-02-13T06:12:43.664Z,1.42
2024-02-13T06:15:12.447Z,1.43
2024-02-13T06:17:44.049Z,1.41
2024-02-13T06:20:14.057Z,1.47
2024-02-13T06:22:42.881Z,1.50
2024-02-13T06:25:12.513Z,1.47
2024-02-13T06:27:41.708Z,1.46
2024-02-13T06:30:11.756Z,1.50
2024-02-13T06:32:42.020Z,1.47
2024-02-13T06:35:11.049Z,1.42
2024-02-13T06:37:41.341Z,1.38
2024-02-13T06:40:11.633Z,1.42
2024-02-13T06:42:40.515Z,1.49
2024-02-13T06:45:11.912Z,1.47
2024-02-13T06:47:42.126Z,1.47
2024-02-13T06:50:13.740Z,1.47
2024-02-13T06:52:43.565Z,1.52
2024-02-13T06:55:12.282Z,1.63
2024-02-13T06:57:40.796Z,1.60
2024-02-13T07:00:10.644Z,1.53
2024-02-13T07:02:39.378Z,1.54
2024-02-13T07:05:10.925Z,1.51
2024-02-13T07:07:46.752Z,1.52
2024-02-13T07:10:17.932Z,1.53
2024-02-13T07:12:46.754Z,1.51
2024-02-13T07:15:15.823Z,1.52
2024-02-13T07:17:53.033Z,1.50
2024-02-13T07:20:29.973Z,1.60
2024-02-13T07:22:58.963Z,1.66
2024-02-13T07:25:27.548Z,1.64
2024-02-13T07:27:56.385Z,1.67
2024-02-13T07:30:25.176Z,1.72
2024-02-13T07:32:53.862Z,1.72
2024-02-13T07:35:23.523Z,1.74
2024-02-13T07:37:53.719Z,1.77
2024-02-13T07:40:22.081Z,1.73
2024-02-13T07:42:50.670Z,1.79
2024-02-13T07:45:19.511Z,1.77
2024-02-13T07:47:48.253Z,1.81
2024-02-13T07:50:19.515Z,1.80
2024-02-13T07:52:47.886Z,1.82
2024-02-13T07:55:17.764Z,1.81
2024-02-13T07:57:51.346Z,1.78
2024-02-13T08:00:22.335Z,1.80
2024-02-13T08:02:52.559Z,1.86
2024-02-13T08:05:21.648Z,1.92
2024-02-13T08:07:50.179Z,2.02
2024-02-13T08:10:20.072Z,2.02
2024-02-13T08:12:48.589Z,2.09
2024-02-13T08:15:17.181Z,2.17
2024-02-13T08:17:45.768Z,2.25
2024-02-13T08:20:14.525Z,2.33
2024-02-13T08:22:43.294Z,2.38
2024-02-13T08:25:11.923Z,2.46
2024-02-13T08:27:42.193Z,2.53
2024-02-13T08:30:12.529Z,2.60
2024-02-13T08:32:43.462Z,2.70
2024-02-13T08:35:12.769Z,2.74
2024-02-13T08:37:41.565Z,2.85
2024-02-13T08:40:14.296Z,2.92
2024-02-13T08:42:46.331Z,2.98
2024-02-13T08:45:14.845Z,3.04
2024-02-13T08:47:43.472Z,3.13
2024-02-13T08:50:14.195Z,3.18
2024-02-13T08:52:43.012Z,3.23
2024-02-13T08:55:12.357Z,3.30
2024-02-13T08:57:41.065Z,3.33
2024-02-13T09:00:17.150Z,3.37
2024-02-13T09:02:47.376Z,3.40
2024-02-13T09:05:16.352Z,3.46
2024-02-13T09:07:45.036Z,3.50
2024-02-13T09:10:14.386Z,3.58
2024-02-13T09:12:46.682Z,3.62
2024-02-13T09:15:16.928Z,3.67
2024-02-13T09:17:47.750Z,3.73
2024-02-13T09:20:17.156Z,3.77
2024-02-13T09:22:46.758Z,3.82
2024-02-13T09:25:17.336Z,3.86
2024-02-13T09:27:49.365Z,3.89
2024-02-13T09:30:19.856Z,3.97
2024-02-13T09:32:49.088Z,4.00
2024-02-13T09:35:19.030Z,4.05
2024-02-13T09:37:47.581Z,4.12
2024-02-13T09:40:16.217Z,4.17
2024-02-13T09:42:46.836Z,4.21
2024-02-13T09:45:17.360Z,4.28
2024-02-13T09:47:49.098Z,4.31
2024-02-13T09:50:18.135Z,4.36
2024-02-13T09:52:50.839Z,4.40
2024-02-13T09:55:21.359Z,4.46
2024-02-13T09:57:51.537Z,4.51
2024-02-13T10:00:21.316Z,4.57
2024-02-13T10:02:52.261Z,4.63
2024-02-13T10:05:22.479Z,4.65
2024-02-13T10:07:51.594Z,4.69
2024-02-13T10:10:20.088Z,4.74
2024-02-13T10:12:54.998Z,4.79
2024-02-13T10:15:25.231Z,4.84
2024-02-13T10:17:56.394Z,4.92
2024-02-13T10:20:25.204Z,4.93
2024-02-13T10:22:56.149Z,4.96
2024-02-13T10:25:30.789Z,5.00
2024-02-13T10:28:02.246Z,5.02
2024-02-13T10:30:32.325Z,5.06
2024-02-13T10:33:07.636Z,5.13
2024-02-13T10:35:39.486Z,5.15
2024-02-13T10:38:09.911Z,5.19
2024-02-13T10:40:42.329Z,5.21
2024-02-13T10:43:13.496Z,5.28
2024-02-13T10:45:43.906Z,5.31
2024-02-13T10:48:35.501Z,5.35
2024-02-13T10:51:06.874Z,5.40
2024-02-13T10:53:36.794Z,5.45
2024-02-13T10:56:06.964Z,5.49
2024-02-13T10:58:36.189Z,5.51
2024-02-13T11:01:06.981Z,5.55
2024-02-13T11:03:39.793Z,5.58
2024-02-13T11:06:08.996Z,5.66
2024-02-13T11:08:38.110Z,5.67
2024-02-13T11:11:18.152Z,5.70
2024-02-13T11:13:46.964Z,5.76
2024-02-13T11:16:15.729Z,5.79
2024-02-13T11:18:50.791Z,5.84
2024-02-13T11:21:23.566Z,5.89
2024-02-13T11:24:00.500Z,5.94
2024-02-13T11:26:36.164Z,5.99
2024-02-13T11:29:12.873Z,6.04
2024-02-13T11:31:43.714Z,6.09
2024-02-13T11:34:15.382Z,6.15
2024-02-13T11:36:50.316Z,6.18
2024-02-13T11:39:20.489Z,6.25
2024-02-13T11:42:01.695Z,6.32
2024-02-13T11:44:31.683Z,6.37
2024-02-13T11:47:00.832Z,6.41
2024-02-13T11:49:32.197Z,6.46
2024-02-13T11:52:01.398Z,6.50
2024-02-13T11:54:31.785Z,6.52
2024-02-13T11:57:04.456Z,6.54
2024-02-13T11:59:34.215Z,6.54
2024-02-13T12:02:03.016Z,6.53
2024-02-13T12:04:33.822Z,6.52
2024-02-13T12:07:07.426Z,6.53
2024-02-13T12:09:38.422Z,6.51
2024-02-13T12:12:09.895Z,6.53
2024-02-13T12:14:40.372Z,6.59
2024-02-13T12:17:11.260Z,6.67
2024-02-13T12:19:43.067Z,6.70
2024-02-13T12:22:14.704Z,6.75
2024-02-13T12:24:46.928Z,6.82
2024-02-13T12:27:18.030Z,6.86
2024-02-13T12:29:51.374Z,6.88
2024-02-13T12:32:21.646Z,6.91
2024-02-13T12:34:55.859Z,6.97
2024-02-13T12:37:25.676Z,7.05
2024-02-13T12:39:54.097Z,7.09
2024-02-13T12:42:22.935Z,7.09
2024-02-13T12:44:51.854Z,7.13
2024-02-13T12:47:22.861Z,7.12
2024-02-13T12:49:53.265Z,7.15
2024-02-13T12:52:24.027Z,7.14
2024-02-13T12:54:53.423Z,7.21
2024-02-13T12:57:22.324Z,7.25
2024-02-13T12:59:53.620Z,7.27
2024-02-13T13:02:28.686Z,7.35
2024-02-13T13:05:01.375Z,7.43
2024-02-13T13:07:31.528Z,7.42
2024-02-13T13:09:59.909Z,7.46
2024-02-13T13:12:28.453Z,7.47
2024-02-13T13:15:04.009Z,7.54
2024-02-13T13:17:40.569Z,7.45
2024-02-13T13:20:18.915Z,7.49
2024-02-13T13:22:48.967Z,7.47
2024-02-13T13:25:25.234Z,7.55
2024-02-13T13:27:55.654Z,7.64
2024-02-13T13:30:26.024Z,7.65
2024-02-13T13:32:56.910Z,7.65
2024-02-13T13:35:29.502Z,7.72
2024-02-13T13:38:00.071Z,7.79
2024-02-13T13:40:34.532Z,7.80
2024-02-13T13:43:03.292Z,7.85
2024-02-13T13:45:31.818Z,7.83
2024-02-13T13:48:01.392Z,7.82
2024-02-13T13:50:31.283Z,7.77
2024-02-13T13:53:01.879Z,7.79
2024-02-13T13:55:30.572Z,7.80
2024-02-13T13:57:59.083Z,7.86
2024-02-13T14:00:31.137Z,7.90
2024-02-13T14:03:00.075Z,7.93
2024-02-13T14:05:28.498Z,7.95
2024-02-13T14:07:58.426Z,7.91
2024-02-13T14:10:26.963Z,7.80
2024-02-13T14:12:55.560Z,7.79
2024-02-13T14:15:25.441Z,7.81
2024-02-13T14:17:53.939Z,7.90
2024-02-13T14:20:22.491Z,7.95
2024-02-13T14:22:51.494Z,7.96
2024-02-13T14:25:22.072Z,7.92
2024-02-13T14:27:50.626Z,7.96
2024-02-13T14:30:20.306Z,7.94
2024-02-13T14:32:49.317Z,8.00
2024-02-13T14:35:18.823Z,7.88
2024-02-13T14:37:47.919Z,7.91
2024-02-13T14:40:17.532Z,7.99
2024-02-13T14:42:48.236Z,8.07
2024-02-13T14:45:17.452Z,8.07
2024-02-13T14:47:47.116Z,8.12
2024-02-13T14:50:18.767Z,8.09
2024-02-13T14:52:47.524Z,8.09
2024-02-13T14:55:16.884Z,8.09
2024-02-13T14:58:00.178Z,8.16
2024-02-13T15:00:36.454Z,8.10
2024-02-13T15:03:05.800Z,8.08
2024-02-13T15:05:35.120Z,8.08
2024-02-13T15:08:03.625Z,8.11
2024-02-13T15:10:32.719Z,8.09
2024-02-13T15:13:03.195Z,8.15
2024-02-13T15:15:33.105Z,8.12
2024-02-13T15:18:01.785Z,8.15
2024-02-13T15:20:30.335Z,8.20
2024-02-13T15:22:58.851Z,8.18
2024-02-13T15:25:28.107Z,8.21
2024-02-13T15:27:56.573Z,8.17
2024-02-13T15:30:26.898Z,8.14
2024-02-13T15:32:55.431Z,8.17
2024-02-13T15:35:32.189Z,8.19
2024-02-13T15:38:18.479Z,8.10
2024-02-13T15:41:04.655Z,8.08
2024-02-13T15:43:50.781Z,8.07
2024-02-13T15:46:37.836Z,8.05
2024-02-13T15:49:07.414Z,8.08
2024-02-13T15:51:36.005Z,8.09
2024-02-13T15:54:10.269Z,8.09
2024-02-13T15:56:40.834Z,8.05
2024-02-13T15:59:10.816Z,8.05
2024-02-13T16:01:40.750Z,7.95
2024-02-13T16:04:12.326Z,7.95
2024-02-13T16:06:41.690Z,7.89
2024-02-13T16:09:12.005Z,7.84
2024-02-13T16:11:41.216Z,7.90
2024-02-13T16:14:10.585Z,7.92
2024-02-13T16:16:40.780Z,7.90
2024-02-13T16:19:10.505Z,7.79
2024-02-13T16:21:39.148Z,7.81
2024-02-13T16:24:09.330Z,7.75
2024-02-13T16:26:39.151Z,7.72
2024-02-13T16:29:07.728Z,7.65
2024-02-13T16:31:36.265Z,7.62
2024-02-13T16:34:06.426Z,7.57
2024-02-13T16:36:35.177Z,7.52
2024-02-13T16:39:05.597Z,7.39
2024-02-13T16:41:34.462Z,7.41
2024-02-13T16:44:03.425Z,7.39
2024-02-13T16:46:35.450Z,7.35
2024-02-13T16:49:05.863Z,7.25
2024-02-13T16:51:34.483Z,7.26
2024-02-13T16:54:03.703Z,7.27
2024-02-13T16:56:32.504Z,7.25
2024-02-13T16:59:01.198Z,7.23
2024-02-13T17:01:29.875Z,7.20
2024-02-13T17:03:58.860Z,7.16
2024-02-13T17:06:29.779Z,7.07
2024-02-13T17:08:58.414Z,7.04
2024-02-13T17:11:27.051Z,7.05
2024-02-13T17:13:56.524Z,7.10
2024-02-13T17:16:25.302Z,7.09
2024-02-13T17:18:54.616Z,7.01
2024-02-13T17:21:23.911Z,6.87
2024-02-13T17:23:54.605Z,6.86
2024-02-13T17:26:24.251Z,6.87
2024-02-13T17:28:52.804Z,6.88
2024-02-13T17:31:21.522Z,6.91
2024-02-13T17:33:50.728Z,6.90
2024-02-13T17:36:19.850Z,6.87
2024-02-13T17:38:49.904Z,6.89
2024-02-13T17:41:20.580Z,6.89
2024-02-13T17:43:50.404Z,6.85
2024-02-13T17:46:18.874Z,6.85
2024-02-13T17:48:49.684Z,6.82
2024-02-13T17:51:20.269Z,6.82
2024-02-13T17:53:49.453Z,6.80
2024-02-13T17:56:19.407Z,6.78
2024-02-13T17:58:47.885Z,6.75
2024-02-13T18:01:17.133Z,6.71
2024-02-13T18:03:45.670Z,6.68
2024-02-13T18:06:15.500Z,6.77
2024-02-13T18:08:44.590Z,6.76
2024-02-13T18:11:13.954Z,6.70
2024-02-13T18:13:44.939Z,6.69
2024-02-13T18:16:13.386Z,6.63
2024-02-13T18:18:42.313Z,6.61
2024-02-13T18:21:10.879Z,6.62
2024-02-13T18:23:39.521Z,6.67
2024-02-13T18:26:08.022Z,6.61
2024-02-13T18:28:38.486Z,6.57
2024-02-13T18:31:08.409Z,6.59
2024-02-13T18:33:37.065Z,6.63
2024-02-13T18:36:06.137Z,6.58
2024-02-13T18:38:35.164Z,6.52
2024-02-13T18:41:03.967Z,6.49
2024-02-13T18:43:32.482Z,6.47
2024-02-13T18:46:01.305Z,6.45
2024-02-13T18:48:32.917Z,6.42
2024-02-13T18:51:04.517Z,6.42
2024-02-13T18:53:34.063Z,6.43
2024-02-13T18:56:03.864Z,6.43
2024-02-13T18:58:36.841Z,6.39
2024-02-13T19:01:05.976Z,6.38
2024-02-13T19:03:36.856Z,6.38
2024-02-13T19:06:05.992Z,6.38
2024-02-13T19:08:36.387Z,6.39
2024-02-13T19:11:05.022Z,6.38
2024-02-13T19:13:33.737Z,6.36
2024-02-13T19:16:02.242Z,6.30
2024-02-13T19:18:30.830Z,6.30
2024-02-13T19:21:01.039Z,6.23
2024-02-13T19:23:30.228Z,6.20
2024-02-13T19:25:59.379Z,6.11
2024-02-13T19:28:27.839Z,6.01
2024-02-13T19:30:56.384Z,6.02
2024-02-13T19:33:25.464Z,6.07
2024-02-13T19:35:54.408Z,5.99
2024-02-13T19:38:24.313Z,5.95
2024-02-13T19:40:53.371Z,5.94
2024-02-13T19:43:22.053Z,5.98
2024-02-13T19:45:50.776Z,6.00
2024-02-13T19:48:19.859Z,5.91
2024-02-13T19:50:48.574Z,5.99
2024-02-13T19:53:16.967Z,5.99
2024-02-13T19:55:46.842Z,5.91
2024-02-13T19:58:16.227Z,5.78
2024-02-13T20:00:45.061Z,5.70
2024-02-13T20:03:14.425Z,5.74
2024-02-13T20:05:44.563Z,5.70
2024-02-13T20:08:13.130Z,5.76
2024-02-13T20:10:41.887Z,5.76
2024-02-13T20:13:11.669Z,5.74
2024-02-13T20:15:40.461Z,5.74
2024-02-13T20:18:26.007Z,5.72
2024-02-13T20:20:54.894Z,5.75
2024-02-13T20:23:23.855Z,5.70
2024-02-13T20:25:53.652Z,5.57
2024-02-13T20:28:23.429Z,5.59
2024-02-13T20:30:51.929Z,5.60
2024-02-13T20:33:20.656Z,5.61
2024-02-13T20:36:00.280Z,5.55
2024-02-13T20:38:29.056Z,5.48
2024-02-13T20:40:57.529Z,5.49
2024-02-13T20:43:28.961Z,5.55
2024-02-13T20:45:58.560Z,5.54
2024-02-13T20:48:27.395Z,5.44
2024-02-13T20:50:56.175Z,5.37
2024-02-13T20:53:24.656Z,5.32
2024-02-13T20:55:57.117Z,5.35
2024-02-13T20:58:27.168Z,5.30
2024-02-13T21:00:57.034Z,5.27
2024-02-13T21:03:25.835Z,5.24
2024-02-13T21:05:56.250Z,5.16
2024-02-13T21:08:25.450Z,5.13
2024-02-13T21:10:53.953Z,5.19
2024-02-13T21:13:22.440Z,5.23
2024-02-13T21:15:52.341Z,5.16
2024-02-13T21:18:20.942Z,5.13
2024-02-13T21:21:08.958Z,5.16
2024-02-13T21:23:54.512Z,5.17
2024-02-13T21:26:23.277Z,5.10
2024-02-13T21:28:51.968Z,5.08
2024-02-13T21:31:21.842Z,5.04
2024-02-13T21:33:50.468Z,4.99
2024-02-13T21:36:19.031Z,4.88
2024-02-13T21:38:47.729Z,4.80
2024-02-13T21:41:16.378Z,4.85
2024-02-13T21:43:44.820Z,4.91
2024-02-13T21:46:13.253Z,4.89
2024-02-13T21:48:43.508Z,4.88
2024-02-13T21:51:12.156Z,4.86
2024-02-13T21:53:40.739Z,4.83
2024-02-13T21:56:09.726Z,4.82
2024-02-13T21:58:38.189Z,4.85
2024-02-13T22:01:08.913Z,4.76
2024-02-13T22:03:37.880Z,4.66
2024-02-13T22:06:08.585Z,4.70
2024-02-13T22:08:37.208Z,4.59
2024-02-13T22:11:06.048Z,4.54
2024-02-13T22:13:34.415Z,4.39
2024-02-13T22:16:03.157Z,4.52
2024-02-13T22:18:31.721Z,4.58
2024-02-13T22:21:00.383Z,4.63
2024-02-13T22:23:30.719Z,4.55
2024-02-13T22:26:03.067Z,4.63
2024-02-13T22:28:31.548Z,4.68
2024-02-13T22:31:00.414Z,4.62
2024-02-13T22:33:28.909Z,4.63
2024-02-13T22:35:57.445Z,4.68
2024-02-13T22:38:26.378Z,4.63
2024-02-13T22:40:56.222Z,4.63
2024-02-13T22:43:24.604Z,4.63
2024-02-13T22:45:53.010Z,4.68
2024-02-13T22:48:24.023Z,4.71
2024-02-13T22:50:52.526Z,4.70
2024-02-13T22:53:21.015Z,4.74
2024-02-13T22:55:49.452Z,4.76
2024-02-13T22:58:19.417Z,4.74
2024-02-13T23:00:51.103Z,4.73
2024-02-13T23:03:20.549Z,4.61
2024-02-13T23:05:52.109Z,4.70
2024-02-13T23:08:20.626Z,4.67
2024-02-13T23:10:49.194Z,4.71
2024-02-13T23:13:24.806Z,4.82
2024-02-13T23:15:54.909Z,4.83
2024-02-13T23:18:23.384Z,4.74
2024-02-13T23:20:52.814Z,4.79
2024-02-13T23:23:21.278Z,4.87
2024-02-13T23:25:49.906Z,4.85
2024-02-13T23:28:19.825Z,4.93
2024-02-13T23:30:49.131Z,4.95
2024-02-13T23:33:17.930Z,5.01
2024-02-13T23:35:47.722Z,5.03
2024-02-13T23:38:15.884Z,4.94
2024-02-13T23:40:44.548Z,4.92
2024-02-13T23:43:13.254Z,4.88
2024-02-13T23:45:43.030Z,4.90
2024-02-13T23:48:11.554Z,4.90
2024-02-13T23:50:40.077Z,4.94
2024-02-13T23:53:09.115Z,4.96
2024-02-13T23:55:37.636Z,4.89
2024-02-13T23:58:07.408Z,4.78
